createdAt,value
2022-09-21T00:00:49.076Z,95.71
2022-09-21T00:01:48.986Z,96.06
2022-09-21T00:02:48.976Z,96.02
2022-09-21T00:03:48.963Z,95.71
2022-09-21T00:04:49.022Z,96.02
2022-09-21T00:05:48.955Z,96.02
2022-09-21T00:06:48.932Z,96.02
2022-09-21T00:07:48.927Z,95.61
2022-09-21T00:08:48.928Z,95.50
2022-09-21T00:09:49.116Z,96.12
2022-09-21T00:10:48.959Z,95.96
2022-09-21T00:11:48.971Z,95.81
2022-09-21T00:12:48.868Z,96.02
2022-09-21T00:13:48.862Z,95.81
2022-09-21T00:14:48.856Z,95.92
2022-09-21T00:15:48.832Z,95.81
2022-09-21T00:16:49.037Z,96.02
2022-09-21T00:17:48.925Z,96.12
2022-09-21T00:18:48.804Z,96.64
2022-09-21T00:19:48.798Z,96.12
2022-09-21T00:20:48.782Z,95.29
2022-09-21T00:21:48.770Z,95.50
2022-09-21T00:22:48.771Z,95.71
2022-09-21T00:23:48.851Z,96.02
2022-09-21T00:24:48.736Z,95.92
2022-09-21T00:25:48.727Z,95.61
2022-09-21T00:26:48.716Z,95.61
2022-09-21T00:27:48.731Z,95.92
2022-09-21T00:28:48.736Z,96.23
2022-09-21T00:29:48.695Z,95.92
2022-09-21T00:30:48.675Z,95.92
2022-09-21T00:31:48.726Z,95.61
2022-09-21T00:32:48.649Z,95.71
2022-09-21T00:33:48.643Z,95.29
2022-09-21T00:34:48.700Z,95.46
2022-09-21T00:35:48.620Z,95.50
2022-09-21T00:36:48.610Z,95.50
2022-09-21T00:37:48.596Z,95.29
2022-09-21T00:38:48.588Z,95.50
2022-09-21T00:39:48.577Z,95.50
2022-09-21T00:40:48.627Z,96.64
2022-09-21T00:41:48.552Z,96.08
2022-09-21T00:42:48.543Z,95.81
2022-09-21T00:43:48.558Z,94.98
2022-09-21T00:44:48.533Z,95.29
2022-09-21T00:45:48.554Z,94.88
2022-09-21T00:46:48.578Z,94.98
2022-09-21T00:47:48.503Z,94.98
2022-09-21T00:48:48.486Z,94.36
2022-09-21T00:49:48.466Z,94.78
2022-09-21T00:50:48.466Z,94.92
2022-09-21T00:51:48.445Z,94.20
2022-09-21T00:52:48.527Z,94.57
2022-09-21T00:53:48.426Z,95.23
2022-09-21T00:54:48.415Z,95.03
2022-09-21T00:55:48.402Z,95.03
2022-09-21T00:56:48.399Z,94.92
2022-09-21T00:57:48.381Z,95.23
2022-09-21T00:58:48.433Z,95.13
2022-09-21T00:59:48.379Z,94.20
2022-09-21T01:00:48.383Z,94.82
2022-09-21T01:01:48.422Z,95.34
2022-09-21T01:02:48.326Z,94.82
2022-09-21T01:03:48.315Z,95.13
2022-09-21T01:04:48.316Z,95.13
2022-09-21T01:05:48.304Z,94.92
2022-09-21T01:06:48.286Z,95.07
2022-09-21T01:07:48.280Z,94.24
2022-09-21T01:08:48.279Z,94.24
2022-09-21T01:09:48.251Z,94.03
2022-09-21T01:10:48.292Z,94.24
2022-09-21T01:11:48.228Z,95.17
2022-09-21T01:12:48.219Z,95.17
2022-09-21T01:13:48.216Z,95.28
2022-09-21T01:14:48.197Z,92.99
2022-09-21T01:15:48.219Z,92.57
2022-09-21T01:16:48.266Z,93.20
2022-09-21T01:17:48.175Z,92.47
2022-09-21T01:18:48.151Z,92.68
2022-09-21T01:19:48.144Z,93.82
2022-09-21T01:20:48.130Z,93.93
2022-09-21T01:21:48.121Z,94.55
2022-09-21T01:22:48.325Z,93.97
2022-09-21T01:23:48.112Z,94.13
2022-09-21T01:24:48.087Z,94.49
2022-09-21T01:25:48.078Z,93.72
2022-09-21T01:26:48.068Z,94.38
2022-09-21T01:27:48.054Z,95.01
2022-09-21T01:28:48.278Z,94.38
2022-09-21T01:29:48.036Z,94.28
2022-09-21T01:30:49.168Z,94.64
2022-09-21T01:31:48.073Z,94.64
2022-09-21T01:32:47.997Z,94.32
2022-09-21T01:33:47.993Z,94.32
2022-09-21T01:34:48.102Z,94.32
2022-09-21T01:35:47.968Z,94.12
2022-09-21T01:36:47.954Z,95.15
2022-09-21T01:37:47.957Z,95.09
2022-09-21T01:38:47.934Z,95.30
2022-09-21T01:39:47.923Z,94.74
2022-09-21T01:40:47.985Z,95.15
2022-09-21T01:41:47.925Z,95.26
2022-09-21T01:42:47.892Z,95.09
2022-09-21T01:43:47.878Z,95.36
2022-09-21T01:44:47.871Z,95.47
2022-09-21T01:45:47.907Z,95.15
2022-09-21T01:46:47.909Z,95.26
2022-09-21T01:47:47.870Z,95.05
2022-09-21T01:48:47.835Z,94.95
2022-09-21T01:49:47.825Z,94.64
2022-09-21T01:50:47.807Z,94.68
2022-09-21T01:51:47.792Z,95.47
2022-09-21T01:52:47.841Z,95.57
2022-09-21T01:53:47.770Z,95.67
2022-09-21T01:54:47.769Z,95.83
2022-09-21T01:55:47.751Z,95.78
2022-09-21T01:56:47.741Z,95.72
2022-09-21T01:57:47.724Z,95.62
2022-09-21T01:58:47.793Z,95.83
2022-09-21T01:59:47.717Z,96.03
2022-09-21T02:00:47.729Z,96.34
2022-09-21T02:01:47.806Z,96.34
2022-09-21T02:02:47.671Z,96.30
2022-09-21T02:03:47.689Z,96.24
2022-09-21T02:04:47.733Z,96.45
2022-09-21T02:05:47.658Z,96.24
2022-09-21T02:06:47.630Z,96.55
2022-09-21T02:07:47.623Z,96.03
2022-09-21T02:08:47.607Z,96.82
2022-09-21T02:09:47.699Z,96.24
2022-09-21T02:10:47.596Z,96.34
2022-09-21T02:11:47.573Z,96.14
2022-09-21T02:12:47.565Z,95.83
2022-09-21T02:13:47.604Z,96.34
2022-09-21T02:14:47.550Z,96.24
2022-09-21T02:15:47.689Z,96.86
2022-09-21T02:16:47.535Z,96.97
2022-09-21T02:17:47.521Z,97.59
2022-09-21T02:18:47.501Z,96.76
2022-09-21T02:19:47.515Z,96.97
2022-09-21T02:20:47.490Z,97.38
2022-09-21T02:21:47.534Z,97.59
2022-09-21T02:22:47.469Z,97.17
2022-09-21T02:23:47.444Z,96.97
2022-09-21T02:24:47.434Z,97.49
2022-09-21T02:25:47.423Z,97.17
2022-09-21T02:26:47.412Z,97.17
2022-09-21T02:27:47.516Z,96.76
2022-09-21T02:28:47.401Z,96.45
2022-09-21T02:29:47.379Z,96.59
2022-09-21T02:30:47.381Z,97.17
2022-09-21T02:31:47.372Z,97.38
2022-09-21T02:32:47.350Z,97.59
2022-09-21T02:33:47.415Z,97.70
2022-09-21T02:34:47.327Z,97.33
2022-09-21T02:35:47.338Z,97.70
2022-09-21T02:36:47.316Z,97.74
2022-09-21T02:37:47.295Z,97.95
2022-09-21T02:38:47.289Z,97.33
2022-09-21T02:39:47.278Z,97.28
2022-09-21T02:40:47.259Z,97.53
2022-09-21T02:41:47.250Z,97.38
2022-09-21T02:42:47.254Z,97.80
2022-09-21T02:43:47.225Z,97.59
2022-09-21T02:44:47.216Z,97.33
2022-09-21T02:45:47.237Z,97.59
2022-09-21T02:46:47.278Z,97.59
2022-09-21T02:47:47.189Z,97.85
2022-09-21T02:48:47.193Z,97.43
2022-09-21T02:49:47.165Z,97.33
2022-09-21T02:50:47.153Z,97.53
2022-09-21T02:51:47.229Z,97.53
2022-09-21T02:52:47.150Z,97.70
2022-09-21T02:53:47.126Z,97.43
2022-09-21T02:54:47.106Z,98.31
2022-09-21T02:55:47.101Z,97.95
2022-09-21T02:56:47.085Z,98.05
2022-09-21T02:57:47.169Z,97.74
2022-09-21T02:58:47.074Z,97.43
2022-09-21T02:59:47.057Z,97.22
2022-09-21T03:00:47.086Z,97.43
2022-09-21T03:01:47.137Z,97.43
2022-09-21T03:02:47.029Z,97.64
2022-09-21T03:03:47.073Z,98.20
2022-09-21T03:04:47.002Z,97.89
2022-09-21T03:05:46.988Z,97.89
2022-09-21T03:06:46.979Z,97.85
2022-09-21T03:07:47.094Z,97.68
2022-09-21T03:08:46.958Z,97.47
2022-09-21T03:09:47.049Z,98.10
2022-09-21T03:10:46.932Z,97.78
2022-09-21T03:11:46.924Z,98.20
2022-09-21T03:12:46.952Z,98.10
2022-09-21T03:13:46.908Z,97.58
2022-09-21T03:14:46.890Z,98.46
2022-09-21T03:15:47.018Z,98.66
2022-09-21T03:16:46.871Z,98.52
2022-09-21T03:17:46.858Z,99.08
2022-09-21T03:18:46.844Z,98.97
2022-09-21T03:19:46.842Z,98.77
2022-09-21T03:20:46.825Z,99.50
2022-09-21T03:21:46.897Z,98.46
2022-09-21T03:22:46.812Z,98.46
2022-09-21T03:23:46.832Z,96.58
2022-09-21T03:24:46.796Z,97.27
2022-09-21T03:25:46.772Z,97.68
2022-09-21T03:26:46.763Z,97.37
2022-09-21T03:27:46.805Z,97.52
2022-09-21T03:28:46.735Z,97.62
2022-09-21T03:29:46.737Z,95.95
2022-09-21T03:30:46.765Z,95.50
2022-09-21T03:31:46.706Z,95.33
2022-09-21T03:32:46.695Z,95.91
2022-09-21T03:33:46.702Z,95.81
2022-09-21T03:34:46.684Z,95.54
2022-09-21T03:35:46.663Z,95.33
2022-09-21T03:36:46.651Z,93.87
2022-09-21T03:37:46.641Z,94.24
2022-09-21T03:38:46.631Z,93.98
2022-09-21T03:39:46.698Z,94.39
2022-09-21T03:40:46.610Z,94.60
2022-09-21T03:41:46.607Z,95.54
2022-09-21T03:42:46.592Z,95.27
2022-09-21T03:43:46.579Z,94.85
2022-09-21T03:44:46.569Z,94.92
2022-09-21T03:45:46.554Z,95.58
2022-09-21T03:46:46.637Z,95.54
2022-09-21T03:47:46.533Z,95.89
2022-09-21T03:48:46.524Z,95.58
2022-09-21T03:49:46.514Z,95.27
2022-09-21T03:50:46.505Z,95.79
2022-09-21T03:51:46.516Z,95.17
2022-09-21T03:52:46.489Z,95.27
2022-09-21T03:53:46.565Z,95.89
2022-09-21T03:54:46.456Z,95.89
2022-09-21T03:55:46.470Z,96.42
2022-09-21T03:56:46.528Z,96.21
2022-09-21T03:57:46.440Z,95.68
2022-09-21T03:58:46.428Z,95.58
2022-09-21T03:59:46.403Z,95.68
2022-09-21T04:00:46.394Z,95.48
2022-09-21T04:01:46.509Z,95.68
2022-09-21T04:02:46.419Z,95.58
2022-09-21T04:03:46.370Z,95.89
2022-09-21T04:04:46.348Z,95.79
2022-09-21T04:05:46.337Z,95.48
2022-09-21T04:06:46.329Z,95.37
2022-09-21T04:07:46.431Z,94.69
2022-09-21T04:08:46.319Z,94.12
2022-09-21T04:09:46.299Z,94.54
2022-09-21T04:10:46.287Z,94.23
2022-09-21T04:11:46.298Z,94.64
2022-09-21T04:12:46.262Z,94.54
2022-09-21T04:13:46.316Z,95.17
2022-09-21T04:14:46.242Z,95.42
2022-09-21T04:15:46.275Z,95.58
2022-09-21T04:16:46.312Z,94.58
2022-09-21T04:17:46.206Z,94.37
2022-09-21T04:18:46.280Z,94.75
2022-09-21T04:19:46.294Z,94.90
2022-09-21T04:20:46.192Z,95.21
2022-09-21T04:21:46.168Z,95.10
2022-09-21T04:22:46.154Z,95.52
2022-09-21T04:23:46.158Z,95.52
2022-09-21T04:24:46.139Z,95.52
2022-09-21T04:25:46.216Z,95.10
2022-09-21T04:26:46.114Z,95.42
2022-09-21T04:27:46.125Z,95.42
2022-09-21T04:28:46.128Z,94.43
2022-09-21T04:29:46.091Z,94.48
2022-09-21T04:30:46.164Z,94.37
2022-09-21T04:31:46.089Z,93.75
2022-09-21T04:32:46.055Z,94.06
2022-09-21T04:33:46.036Z,93.65
2022-09-21T04:34:46.033Z,93.12
2022-09-21T04:35:46.028Z,94.27
2022-09-21T04:36:46.005Z,94.06
2022-09-21T04:37:46.076Z,93.85
2022-09-21T04:38:45.984Z,94.37
2022-09-21T04:39:45.971Z,94.27
2022-09-21T04:40:45.969Z,94.58
2022-09-21T04:41:45.973Z,95.46
2022-09-21T04:42:45.999Z,95.42
2022-09-21T04:43:46.076Z,95.21
2022-09-21T04:44:45.916Z,94.27
2022-09-21T04:45:45.909Z,93.96
2022-09-21T04:46:45.911Z,94.37
2022-09-21T04:47:45.889Z,94.58
2022-09-21T04:48:45.873Z,95.52
2022-09-21T04:49:45.957Z,95.10
2022-09-21T04:50:45.861Z,95.31
2022-09-21T04:51:45.840Z,95.00
2022-09-21T04:52:45.836Z,94.06
2022-09-21T04:53:45.823Z,94.48
2022-09-21T04:54:45.810Z,94.17
2022-09-21T04:55:45.849Z,94.17
2022-09-21T04:56:45.791Z,94.37
2022-09-21T04:57:45.787Z,94.27
2022-09-21T04:58:45.766Z,94.58
2022-09-21T04:59:45.799Z,94.69
2022-09-21T05:00:45.751Z,94.84
2022-09-21T05:01:45.795Z,94.79
2022-09-21T05:02:45.724Z,94.79
2022-09-21T05:03:45.778Z,94.48
2022-09-21T05:04:50.633Z,94.48
2022-09-21T05:05:46.700Z,93.96
2022-09-21T05:06:45.687Z,94.52
2022-09-21T05:07:45.696Z,95.73
2022-09-21T05:08:45.662Z,96.04
2022-09-21T05:09:45.650Z,95.98
2022-09-21T05:10:45.640Z,95.78
2022-09-21T05:11:45.631Z,95.31
2022-09-21T05:12:45.630Z,95.31
2022-09-21T05:13:45.649Z,95.78
2022-09-21T05:14:45.595Z,95.42
2022-09-21T05:15:45.653Z,95.73
2022-09-21T05:16:45.585Z,95.52
2022-09-21T05:17:45.562Z,95.10
2022-09-21T05:18:45.553Z,95.42
2022-09-21T05:19:45.586Z,95.62
2022-09-21T05:20:45.544Z,95.98
2022-09-21T05:21:45.530Z,95.67
2022-09-21T05:22:45.510Z,96.09
2022-09-21T05:23:45.500Z,95.78
2022-09-21T05:24:45.488Z,95.42
2022-09-21T05:25:45.515Z,95.42
2022-09-21T05:26:45.480Z,95.56
2022-09-21T05:27:45.456Z,94.69
2022-09-21T05:28:45.447Z,93.85
2022-09-21T05:29:45.456Z,94.21
2022-09-21T05:31:07.239Z,94.06
2022-09-21T05:31:46.608Z,94.31
2022-09-21T05:32:45.402Z,93.59
2022-09-21T05:33:45.438Z,93.06
2022-09-21T05:34:45.381Z,92.50
2022-09-21T05:35:45.370Z,93.75
2022-09-21T05:36:45.359Z,94.21
2022-09-21T05:37:45.469Z,94.21
2022-09-21T05:38:45.338Z,93.90
2022-09-21T05:39:45.340Z,94.58
2022-09-21T05:40:45.331Z,94.27
2022-09-21T05:41:45.303Z,94.27
2022-09-21T05:42:45.292Z,93.65
2022-09-21T05:43:45.373Z,93.37
2022-09-21T05:44:45.274Z,93.16
2022-09-21T05:45:47.708Z,92.81
2022-09-21T05:46:45.254Z,92.18
2022-09-21T05:47:45.264Z,92.60
2022-09-21T05:48:45.228Z,92.40
2022-09-21T05:49:45.353Z,92.40
2022-09-21T05:50:45.212Z,91.97
2022-09-21T05:51:45.197Z,92.91
2022-09-21T05:52:45.187Z,93.54
2022-09-21T05:53:45.179Z,92.50
2022-09-21T05:54:45.165Z,92.91
2022-09-21T05:55:45.185Z,92.71
2022-09-21T05:56:45.147Z,92.91
2022-09-21T05:57:45.137Z,93.54
2022-09-21T05:58:45.126Z,93.06
2022-09-21T05:59:45.155Z,94.27
2022-09-21T06:00:45.167Z,93.75
2022-09-21T06:01:45.301Z,94.27
2022-09-21T06:02:45.255Z,93.75
2022-09-21T06:03:45.093Z,94.58
2022-09-21T06:04:45.059Z,95.31
2022-09-21T06:05:45.059Z,94.06
2022-09-21T06:06:45.039Z,94.37
2022-09-21T06:07:45.117Z,94.27
2022-09-21T06:08:45.014Z,93.50
2022-09-21T06:09:45.012Z,93.71
2022-09-21T06:10:45.005Z,93.65
2022-09-21T06:11:45.056Z,93.54
2022-09-21T06:12:44.972Z,93.44
2022-09-21T06:13:45.032Z,93.08
2022-09-21T06:14:44.961Z,91.83
2022-09-21T06:15:44.939Z,92.14
2022-09-21T06:16:45.034Z,90.89
2022-09-21T06:17:44.954Z,90.47
2022-09-21T06:18:44.921Z,90.79
2022-09-21T06:19:44.941Z,90.79
2022-09-21T06:20:44.973Z,90.64
2022-09-21T06:21:44.889Z,89.79
2022-09-21T06:22:44.868Z,89.25
2022-09-21T06:23:44.855Z,87.37
2022-09-21T06:24:44.843Z,84.59
2022-09-21T06:25:44.845Z,81.57
2022-09-21T06:26:44.885Z,79.47
2022-09-21T06:27:44.828Z,78.29
2022-09-21T06:28:44.798Z,77.19
2022-09-21T06:29:44.801Z,75.19
2022-09-21T06:30:44.832Z,74.95
2022-09-21T06:31:44.769Z,75.53
2022-09-21T06:32:44.812Z,73.36
2022-09-21T06:33:48.021Z,74.15
2022-09-21T06:34:44.732Z,75.32
2022-09-21T06:35:44.756Z,75.53
2022-09-21T06:36:44.710Z,76.56
2022-09-21T06:37:44.706Z,75.63
2022-09-21T06:38:44.778Z,77.46
2022-09-21T06:39:44.682Z,77.36
2022-09-21T06:40:44.745Z,77.25
2022-09-21T06:41:44.771Z,76.84
2022-09-21T06:42:44.644Z,77.60
2022-09-21T06:43:44.637Z,76.32
2022-09-21T06:44:44.693Z,76.08
2022-09-21T06:45:44.662Z,76.25
2022-09-21T06:46:44.601Z,73.47
2022-09-21T06:47:44.603Z,73.09
2022-09-21T06:48:44.585Z,75.18
2022-09-21T06:49:44.661Z,75.22
2022-09-21T06:50:44.561Z,73.98
2022-09-21T06:51:44.578Z,73.74
2022-09-21T06:52:44.548Z,74.98
2022-09-21T06:53:44.536Z,73.57
2022-09-21T06:54:44.520Z,73.81
2022-09-21T06:55:44.606Z,73.81
2022-09-21T06:56:44.506Z,74.02
2022-09-21T06:57:44.488Z,73.71
2022-09-21T06:58:44.537Z,72.13
2022-09-21T06:59:44.476Z,72.19
2022-09-21T07:00:44.511Z,71.68
2022-09-21T07:01:44.665Z,71.26
2022-09-21T07:02:44.428Z,70.96
2022-09-21T07:03:44.428Z,71.41
2022-09-21T07:04:44.411Z,72.19
2022-09-21T07:05:44.401Z,70.65
2022-09-21T07:06:44.462Z,70.41
2022-09-21T07:07:44.403Z,70.31
2022-09-21T07:10:45.343Z,67.57
2022-09-21T07:11:44.332Z,69.11
2022-09-21T07:12:44.372Z,68.25
2022-09-21T07:13:44.319Z,70.21
2022-09-21T07:14:44.296Z,69.35
2022-09-21T07:15:44.290Z,70.79
2022-09-21T07:16:44.346Z,71.89
2022-09-21T07:17:50.076Z,71.89
2022-09-21T07:18:45.539Z,71.34
2022-09-21T07:19:44.240Z,69.80
2022-09-21T07:20:44.229Z,69.94
2022-09-21T07:21:44.222Z,71.07
2022-09-21T07:22:44.208Z,70.32
2022-09-21T07:23:44.315Z,69.01
2022-09-21T07:24:44.196Z,70.83
2022-09-21T07:25:44.175Z,71.82
2022-09-21T07:26:44.166Z,69.01
2022-09-21T07:27:44.165Z,69.25
2022-09-21T07:28:44.147Z,70.07
2022-09-21T07:29:44.146Z,71.34
2022-09-21T07:30:44.177Z,71.10
2022-09-21T07:31:44.156Z,71.75
2022-09-21T07:32:44.100Z,72.00
2022-09-21T07:33:44.090Z,69.60
2022-09-21T07:34:44.080Z,69.15
2022-09-21T07:35:44.112Z,68.46
2022-09-21T07:36:44.156Z,68.46
2022-09-21T07:37:44.045Z,71.37
2022-09-21T07:38:44.041Z,71.24
2022-09-21T07:39:44.077Z,69.15
2022-09-21T07:40:44.075Z,71.00
2022-09-21T07:41:44.001Z,72.85
2022-09-21T07:42:43.989Z,71.92
2022-09-21T07:43:44.036Z,71.31
2022-09-21T07:44:43.970Z,69.35
2022-09-21T07:45:44.016Z,69.66
2022-09-21T07:46:47.958Z,71.31
2022-09-21T07:47:43.935Z,71.28
2022-09-21T07:48:43.929Z,70.28
2022-09-21T07:49:43.989Z,70.14
2022-09-21T07:50:43.911Z,70.21
2022-09-21T07:51:43.893Z,68.88
2022-09-21T07:52:43.891Z,69.80
2022-09-21T07:53:43.867Z,68.67
2022-09-21T07:54:43.855Z,69.60
2022-09-21T07:55:43.897Z,70.11
2022-09-21T07:56:43.835Z,70.18
2022-09-21T07:57:43.838Z,69.60
2022-09-21T07:58:43.822Z,70.35
2022-09-21T07:59:43.804Z,71.41
2022-09-21T08:00:43.838Z,71.96
2022-09-21T08:01:43.848Z,71.24
2022-09-21T08:02:47.521Z,70.66
2022-09-21T08:03:43.813Z,71.11
2022-09-21T08:04:43.753Z,69.87
2022-09-21T08:05:43.735Z,70.32
2022-09-21T08:06:43.725Z,71.34
2022-09-21T08:07:43.789Z,71.41
2022-09-21T08:08:43.755Z,71.10
2022-09-21T08:09:43.694Z,71.34
2022-09-21T08:10:43.683Z,73.54
2022-09-21T08:11:43.691Z,71.31
2022-09-21T08:12:43.659Z,71.28
2022-09-21T08:13:43.675Z,69.46
2022-09-21T08:14:43.646Z,71.86
2022-09-21T08:15:49.868Z,70.32
2022-09-21T08:16:44.684Z,70.73
2022-09-21T08:17:43.813Z,69.26
2022-09-21T08:18:43.591Z,70.01
2022-09-21T08:19:44.306Z,69.91
2022-09-21T08:20:43.573Z,69.26
2022-09-21T08:21:43.568Z,70.22
2022-09-21T08:22:43.551Z,70.39
2022-09-21T08:23:43.536Z,71.48
2022-09-21T08:24:43.527Z,70.73
2022-09-21T08:25:43.594Z,70.22
2022-09-21T08:26:43.504Z,69.92
2022-09-21T08:27:43.529Z,67.76
2022-09-21T08:28:43.487Z,70.63
2022-09-21T08:29:43.475Z,69.09
2022-09-21T08:30:43.461Z,69.84
2022-09-21T08:31:43.615Z,71.08
2022-09-21T08:32:51.926Z,70.12
2022-09-21T08:33:44.446Z,68.45
2022-09-21T08:34:43.416Z,67.46
2022-09-21T08:35:43.405Z,68.99
2022-09-21T08:36:43.395Z,68.30
2022-09-21T08:37:43.564Z,66.83
2022-09-21T08:38:43.372Z,68.13
2022-09-21T08:39:43.360Z,69.19
2022-09-21T08:40:43.419Z,68.16
2022-09-21T08:41:43.338Z,68.13
2022-09-21T08:42:46.405Z,69.19
2022-09-21T08:43:44.348Z,68.48
2022-09-21T08:44:43.310Z,69.09
2022-09-21T08:45:43.292Z,70.64
2022-09-21T08:46:43.423Z,70.26
2022-09-21T08:47:43.277Z,67.28
2022-09-21T08:48:43.276Z,70.94
2022-09-21T08:49:43.275Z,68.68
2022-09-21T08:50:43.239Z,67.83
2022-09-21T08:51:43.242Z,67.14
2022-09-21T08:52:46.231Z,67.22
2022-09-21T08:53:43.223Z,65.92
2022-09-21T08:54:43.193Z,68.38
2022-09-21T08:55:43.191Z,68.27
2022-09-21T08:57:03.970Z,68.48
2022-09-21T08:57:44.176Z,68.21
2022-09-21T08:58:43.148Z,70.15
2022-09-21T08:59:43.183Z,69.30
2022-09-21T09:00:43.176Z,69.43
2022-09-21T09:01:43.191Z,69.40
2022-09-21T09:02:43.121Z,70.73
2022-09-21T09:03:43.095Z,70.33
2022-09-21T09:04:43.087Z,70.37
2022-09-21T09:05:43.074Z,67.26
2022-09-21T09:06:43.064Z,68.41
2022-09-21T09:07:43.144Z,68.72
2022-09-21T09:08:43.079Z,69.02
2022-09-21T09:09:43.037Z,70.94
2022-09-21T09:10:43.025Z,71.49
2022-09-21T09:11:43.012Z,68.73
2022-09-21T09:12:42.999Z,70.03
2022-09-21T09:13:43.087Z,68.55
2022-09-21T09:14:42.997Z,69.75
2022-09-21T09:15:43.055Z,66.93
2022-09-21T09:16:42.978Z,69.01
2022-09-21T09:17:42.950Z,64.68
2022-09-21T09:18:43.796Z,64.27
2022-09-21T09:19:42.954Z,67.92
2022-09-21T09:20:42.925Z,67.38
2022-09-21T09:21:42.941Z,64.99
2022-09-21T09:22:42.891Z,67.75
2022-09-21T09:23:42.879Z,65.94
2022-09-21T09:24:42.875Z,65.87
2022-09-21T09:25:42.911Z,69.48
2022-09-21T09:26:42.904Z,69.62
2022-09-21T09:27:42.845Z,67.57
2022-09-21T09:28:42.829Z,68.49
2022-09-21T09:29:42.817Z,68.39
2022-09-21T09:30:42.805Z,66.51
2022-09-21T09:31:42.902Z,68.01
2022-09-21T09:32:43.169Z,67.60
2022-09-21T09:33:42.774Z,67.65
2022-09-21T09:34:42.757Z,68.02
2022-09-21T09:35:42.748Z,68.66
2022-09-21T09:36:57.950Z,69.18
2022-09-21T09:37:43.736Z,63.53
2022-09-21T09:38:42.810Z,66.08
2022-09-21T09:39:42.702Z,64.48
2022-09-21T09:40:42.756Z,68.37
2022-09-21T09:41:42.686Z,62.73
2022-09-21T09:42:42.669Z,60.89
2022-09-21T09:43:42.667Z,62.93
2022-09-21T09:44:42.680Z,62.52
2022-09-21T09:45:42.644Z,63.44
2022-09-21T09:46:42.693Z,59.46
2022-09-21T09:47:42.642Z,60.48
2022-09-21T09:48:42.609Z,61.50
2022-09-21T09:49:42.589Z,60.44
2022-09-21T09:50:42.823Z,61.32
2022-09-21T09:51:42.585Z,60.41
2022-09-21T09:52:42.559Z,61.30
2022-09-21T09:53:42.554Z,57.60
2022-09-21T09:54:42.539Z,59.46
2022-09-21T09:55:42.548Z,61.65
2022-09-21T09:56:42.516Z,60.35
2022-09-21T09:57:42.514Z,61.24
2022-09-21T09:58:42.502Z,60.02
2022-09-21T09:59:42.480Z,56.50
2022-09-21T10:00:42.472Z,60.12
2022-09-21T10:01:42.968Z,61.08
2022-09-21T10:02:42.534Z,59.63
2022-09-21T10:03:42.459Z,55.66
2022-09-21T10:04:42.583Z,56.89
2022-09-21T10:05:42.424Z,62.48
2022-09-21T10:06:46.102Z,58.01
2022-09-21T10:07:42.390Z,58.18
2022-09-21T10:08:42.379Z,61.08
2022-09-21T10:09:42.370Z,57.14
2022-09-21T10:10:42.365Z,59.68
2022-09-21T10:11:42.435Z,58.53
2022-09-21T10:12:42.380Z,56.60
2022-09-21T10:13:42.325Z,58.39
2022-09-21T10:14:42.414Z,64.12
2022-09-21T10:15:42.324Z,58.51
2022-09-21T10:16:42.301Z,59.61
2022-09-21T10:17:42.283Z,58.14
2022-09-21T10:18:42.404Z,58.95
2022-09-21T10:19:42.316Z,59.36
2022-09-21T10:20:42.249Z,59.71
2022-09-21T10:21:42.237Z,59.68
2022-09-21T10:22:42.230Z,59.12
2022-09-21T10:23:42.231Z,58.38
2022-09-21T10:24:42.226Z,57.74
2022-09-21T10:25:42.193Z,60.61
2022-09-21T10:26:42.185Z,58.15
2022-09-21T10:27:42.187Z,57.16
2022-09-21T10:28:42.162Z,59.35
2022-09-21T10:29:42.155Z,61.13
2022-09-21T10:30:42.151Z,60.46
2022-09-21T10:31:42.139Z,58.25
2022-09-21T10:32:42.114Z,58.25
2022-09-21T10:33:42.101Z,59.30
2022-09-21T10:34:42.091Z,59.60
2022-09-21T10:35:42.112Z,57.72
2022-09-21T10:36:42.255Z,59.14
2022-09-21T10:37:42.085Z,58.80
2022-09-21T10:38:42.053Z,61.14
2022-09-21T10:39:42.039Z,58.26
2022-09-21T10:40:42.124Z,58.39
2022-09-21T10:41:42.020Z,58.75
2022-09-21T10:42:42.166Z,63.96
2022-09-21T10:43:43.596Z,60.39
2022-09-21T10:44:41.984Z,58.94
2022-09-21T10:45:41.981Z,59.41
2022-09-21T10:46:42.098Z,59.05
2022-09-21T10:47:41.957Z,61.24
2022-09-21T10:48:42.096Z,60.68
2022-09-21T10:49:41.931Z,60.92
2022-09-21T10:50:41.919Z,60.97
2022-09-21T10:51:41.933Z,57.21
2022-09-21T10:52:41.901Z,56.73
2022-09-21T10:53:41.885Z,59.34
2022-09-21T10:54:41.948Z,58.25
2022-09-21T10:55:52.716Z,63.10
2022-09-21T10:56:42.852Z,57.41
2022-09-21T10:57:41.838Z,58.28
2022-09-21T10:58:41.833Z,60.97
2022-09-21T10:59:41.822Z,59.09
2022-09-21T11:00:41.912Z,60.76
2022-09-21T11:01:41.880Z,60.63
2022-09-21T11:02:41.866Z,57.66
2022-09-21T11:03:41.775Z,58.02
2022-09-21T11:04:41.767Z,59.24
2022-09-21T11:05:41.754Z,56.82
2022-09-21T11:06:41.810Z,59.63
2022-09-21T11:07:41.997Z,60.30
2022-09-21T11:08:41.717Z,61.53
2022-09-21T11:09:41.710Z,60.46
2022-09-21T11:10:41.699Z,58.58
2022-09-21T11:11:41.964Z,57.18
2022-09-21T11:12:41.687Z,59.59
2022-09-21T11:13:41.689Z,59.46
2022-09-21T11:14:41.656Z,55.43
2022-09-21T11:15:41.686Z,57.34
2022-09-21T11:16:41.634Z,58.30
2022-09-21T11:17:41.631Z,60.85
2022-09-21T11:18:41.607Z,60.82
2022-09-21T11:19:41.722Z,60.82
2022-09-21T11:20:41.588Z,61.51
2022-09-21T11:21:41.577Z,59.03
2022-09-21T11:22:41.579Z,58.94
2022-09-21T11:23:41.580Z,58.33
2022-09-21T11:24:41.544Z,58.94
2022-09-21T11:25:41.531Z,58.33
2022-09-21T11:27:41.959Z,57.16
2022-09-21T11:28:41.506Z,59.19
2022-09-21T11:29:41.488Z,58.63
2022-09-21T11:30:41.515Z,60.81
2022-09-21T11:31:41.465Z,60.07
2022-09-21T11:32:41.526Z,58.37
2022-09-21T11:33:41.454Z,59.43
2022-09-21T11:34:41.441Z,57.12
2022-09-21T11:35:41.432Z,59.12
2022-09-21T11:36:41.411Z,57.66
2022-09-21T11:37:41.400Z,56.59
2022-09-21T11:38:43.394Z,57.23
2022-09-21T11:39:41.398Z,57.03
2022-09-21T11:40:41.508Z,57.93
2022-09-21T11:41:41.354Z,59.03
2022-09-21T11:42:41.345Z,58.24
2022-09-21T11:43:41.331Z,57.28
2022-09-21T11:44:41.328Z,59.27
2022-09-21T11:45:41.388Z,58.60
2022-09-21T11:46:41.310Z,58.53
2022-09-21T11:47:41.414Z,58.60
2022-09-21T11:48:41.287Z,58.45
2022-09-21T11:49:41.263Z,58.25
2022-09-21T11:50:41.370Z,58.35
2022-09-21T11:51:41.241Z,60.08
2022-09-21T11:52:41.232Z,57.84
2022-09-21T11:53:41.243Z,61.01
2022-09-21T11:54:41.212Z,59.86
2022-09-21T11:55:41.224Z,55.60
2022-09-21T11:56:41.185Z,56.39
2022-09-21T11:57:41.176Z,60.22
2022-09-21T11:58:41.161Z,58.33
2022-09-21T11:59:41.200Z,59.92
2022-09-21T12:00:41.141Z,58.29
2022-09-21T12:01:41.131Z,56.95
2022-09-21T12:02:41.447Z,56.62
2022-09-21T12:03:41.107Z,56.21
2022-09-21T12:04:41.094Z,56.47
2022-09-21T12:05:41.143Z,57.10
2022-09-21T12:06:41.086Z,58.25
2022-09-21T12:07:41.069Z,60.15
2022-09-21T12:08:41.054Z,59.18
2022-09-21T12:09:41.041Z,57.56
2022-09-21T12:10:41.030Z,59.66
2022-09-21T12:11:41.067Z,54.82
2022-09-21T12:12:41.029Z,56.99
2022-09-21T12:13:40.998Z,56.77
2022-09-21T12:14:40.990Z,57.42
2022-09-21T12:15:40.985Z,54.79
2022-09-21T12:16:41.121Z,56.21
2022-09-21T12:17:41.013Z,55.30
2022-09-21T12:18:43.867Z,54.69
2022-09-21T12:19:40.929Z,56.41
2022-09-21T12:20:40.921Z,56.10
2022-09-21T12:21:40.910Z,54.84
2022-09-21T12:22:40.916Z,55.27
2022-09-21T12:23:40.888Z,54.59
2022-09-21T12:24:40.929Z,55.88
2022-09-21T12:25:40.861Z,58.09
2022-09-21T12:26:40.854Z,58.64
2022-09-21T12:27:40.947Z,55.10
2022-09-21T12:28:40.829Z,54.76
2022-09-21T12:29:41.077Z,57.90
2022-09-21T12:30:40.881Z,54.28
2022-09-21T12:31:40.800Z,54.53
2022-09-21T12:32:40.801Z,56.54
2022-09-21T12:33:40.785Z,53.78
2022-09-21T12:34:40.823Z,55.07
2022-09-21T12:35:40.815Z,51.86
2022-09-21T12:36:41.895Z,56.48
2022-09-21T12:37:40.805Z,55.04
2022-09-21T12:38:40.742Z,54.05
2022-09-21T12:39:40.708Z,54.71
2022-09-21T12:40:40.792Z,56.21
2022-09-21T12:41:40.690Z,57.60
2022-09-21T12:42:40.691Z,56.63
2022-09-21T12:43:40.703Z,54.31
2022-09-21T12:44:45.197Z,53.63
2022-09-21T12:45:41.678Z,52.99
2022-09-21T12:46:40.635Z,54.00
2022-09-21T12:47:40.626Z,54.71
2022-09-21T12:48:40.644Z,52.69
2022-09-21T12:49:40.603Z,56.76
2022-09-21T12:50:40.593Z,52.99
2022-09-21T12:51:40.579Z,54.31
2022-09-21T12:52:40.564Z,55.11
2022-09-21T12:53:40.569Z,55.32
2022-09-21T12:54:43.329Z,54.84
2022-09-21T12:55:40.635Z,54.21